Time;durP1;ratioP1;P1;durP2;ratioP2;P2;SDS_P1;SDS_P2;PMS_P1;PMS_P2;Temp;Humidity;BMP_temperature;BMP_pressure;BME280_temperature;BME280_humidity;BME280_pressure;Samples;Min_cycle;Max_cycle;Signal;HPM_P1;HPM_P2
2021/08/07 00:01:25;;;;;;;26.23;20.58;;;;;;;16.98;89.65;98461.28;5051679;28;20044;-60
2021/08/07 00:03:52;;;;;;;25.67;19.55;;;;;;;17.03;89.70;98476.47;5050518;28;20045;-61
2021/08/07 00:06:18;;;;;;;27.15;21.30;;;;;;;17.06;89.58;98477.72;5051618;28;20094;-61
2021/08/07 00:08:44;;;;;;;28.60;21.77;;;;;;;17.08;89.47;98487.03;5051943;28;20040;-61
2021/08/07 00:11:10;;;;;;;29.35;21.42;;;;;;;17.09;89.34;98466.41;5050334;28;20051;-61
2021/08/07 00:13:35;;;;;;;29.10;21.63;;;;;;;17.10;89.41;98470.69;5051866;28;20063;-61
2021/08/07 00:16:01;;;;;;;28.58;21.85;;;;;;;17.11;89.51;98474.94;5051807;28;20454;-62
2021/08/07 00:18:29;;;;;;;26.73;21.58;;;;;;;17.12;89.32;98471.97;5051495;28;20076;-62
2021/08/07 00:20:55;;;;;;;28.40;21.50;;;;;;;17.13;89.48;98464.72;5051334;28;20079;-61
2021/08/07 00:23:20;;;;;;;30.92;23.30;;;;;;;17.11;89.42;98459.66;5051037;28;20065;-62
2021/08/07 00:25:46;;;;;;;30.55;22.83;;;;;;;17.11;89.54;98462.34;5051419;28;20532;-61
2021/08/07 00:28:12;;;;;;;29.13;21.38;;;;;;;17.09;89.51;98459.19;5051657;28;20064;-61
2021/08/07 00:30:38;;;;;;;32.67;22.58;;;;;;;17.11;89.21;98462.34;5051321;28;20418;-60
2021/08/07 00:33:03;;;;;;;32.53;23.77;;;;;;;17.14;89.49;98466.28;5051491;28;20055;-62
2021/08/07 00:35:30;;;;;;;31.58;22.58;;;;;;;17.14;89.43;98471.66;5050279;28;20039;-63
2021/08/07 00:37:57;;;;;;;30.80;22.67;;;;;;;17.15;89.25;98463.31;5051532;28;20063;-62
2021/08/07 00:40:22;;;;;;;33.38;23.58;;;;;;;17.14;89.60;98455.59;5050277;28;20182;-61
2021/08/07 00:42:53;;;;;;;33.08;23.92;;;;;;;17.17;89.27;98463.78;5050226;28;20523;-62
2021/08/07 00:45:26;;;;;;;33.60;24.20;;;;;;;17.18;89.15;98464.63;5051336;28;20124;-61
2021/08/07 00:47:57;;;;;;;32.45;23.67;;;;;;;17.20;89.23;98457.03;5050025;28;20481;-60
2021/08/07 00:50:23;;;;;;;31.88;23.83;;;;;;;17.17;89.31;98458.44;5033494;28;20080;-61
2021/08/07 00:52:51;;;;;;;36.58;24.10;;;;;;;17.16;89.30;98462.22;5033862;28;20052;-63
2021/08/07 00:55:22;;;;;;;34.42;24.92;;;;;;;17.17;89.33;98453.09;5050062;28;20067;-62
2021/08/07 00:57:48;;;;;;;32.75;23.73;;;;;;;17.15;89.23;98459.88;5049807;28;20045;-62
2021/08/07 01:00:18;;;;;;;37.05;25.13;;;;;;;17.19;89.22;98452.78;5049702;28;20045;-62
2021/08/07 01:03:00;;;;;;;32.70;22.58;;;;;;;17.15;89.28;98451.81;5049645;28;20060;-62
2021/08/07 01:05:35;;;;;;;32.28;24.55;;;;;;;17.14;89.39;98447.56;5050002;28;20137;-62
2021/08/07 01:08:11;;;;;;;32.65;23.40;;;;;;;17.19;89.30;98450.13;5049708;28;20041;-62
2021/08/07 01:10:57;;;;;;;30.65;23.50;;;;;;;17.19;89.36;98450.91;5033324;28;20076;-62
2021/08/07 01:13:26;;;;;;;34.08;25.58;;;;;;;17.17;89.47;98453.09;5051166;28;20045;-61
2021/08/07 01:15:59;;;;;;;32.38;24.40;;;;;;;17.18;89.26;98446.66;5033608;28;20179;-62
2021/08/07 01:18:29;;;;;;;32.95;24.70;;;;;;;17.18;89.19;98454.69;5049433;28;20041;-62
2021/08/07 01:20:58;;;;;;;39.65;26.45;;;;;;;17.19;89.24;98458.94;5049657;28;20056;-62
2021/08/07 01:23:41;;;;;;;34.10;25.95;;;;;;;17.21;89.14;98458.66;5049606;28;20186;-62
2021/08/07 01:26:11;;;;;;;34.47;25.63;;;;;;;17.24;89.00;98469.53;5033111;28;20049;-62
2021/08/07 01:28:42;;;;;;;39.55;26.85;;;;;;;17.28;89.24;98480.44;5049882;28;20040;-62
2021/08/07 01:31:11;;;;;;;36.05;25.85;;;;;;;17.31;89.17;98479.03;5049419;28;20136;-61
2021/08/07 01:33:38;;;;;;;34.22;26.95;;;;;;;17.31;88.54;98463.75;5051013;28;20094;-62
2021/08/07 01:36:15;;;;;;;36.60;26.17;;;;;;;17.27;89.43;98441.38;5037260;28;20157;-62
2021/08/07 01:38:46;;;;;;;41.28;27.60;;;;;;;17.14;90.26;98413.53;5053177;28;20079;-62
2021/08/07 01:41:16;;;;;;;36.70;26.40;;;;;;;17.14;90.63;98420.78;5020655;28;20084;-62
2021/08/07 01:43:44;;;;;;;;;;;;;;;17.09;91.06;98411.00;5037301;28;20053;-61
2021/08/07 01:46:17;;;;;;;38.88;27.27;;;;;;;17.05;91.13;98425.28;5053107;28;20412;-62
2021/08/07 01:48:56;;;;;;;48.10;29.05;;;;;;;17.06;91.77;98413.47;5037129;28;20551;-61
2021/08/07 01:51:40;;;;;;;37.47;26.55;;;;;;;17.03;91.26;98415.66;5037457;28;20045;-62
2021/08/07 01:54:06;;;;;;;36.58;25.45;;;;;;;17.00;90.91;98418.13;5036488;28;20099;-62
2021/08/07 01:56:42;;;;;;;33.85;25.83;;;;;;;17.05;91.23;98427.94;5020358;28;20040;-62
2021/08/07 01:59:14;;;;;;;37.78;26.80;;;;;;;17.08;91.00;98425.44;5052958;28;20482;-61
2021/08/07 02:01:43;;;;;;;40.17;28.85;;;;;;;17.03;91.06;98426.38;5036120;28;20084;-62
2021/08/07 02:04:17;;;;;;;40.35;28.85;;;;;;;17.10;90.63;98431.31;5037135;28;20446;-62
2021/08/07 02:06:49;;;;;;;41.28;28.27;;;;;;;17.12;90.63;98433.66;5037134;28;20131;-62
2021/08/07 02:09:18;;;;;;;39.00;27.13;;;;;;;17.11;90.65;98434.78;5052645;28;20040;-62
2021/08/07 02:11:54;;;;;;;42.47;28.42;;;;;;;17.12;90.73;98429.13;5052528;28;20500;-62
2021/08/07 02:14:21;;;;;;;40.67;30.08;;;;;;;17.14;90.56;98434.16;5052661;28;20076;-62
2021/08/07 02:16:48;;;;;;;42.20;29.02;;;;;;;17.15;90.47;98433.88;5035971;28;20051;-62
2021/08/07 02:19:20;;;;;;;40.60;29.90;;;;;;;17.15;90.28;98436.56;5052240;28;20045;-62
2021/08/07 02:21:46;;;;;;;40.75;29.15;;;;;;;17.17;90.17;98439.69;5052303;28;20430;-63
2021/08/07 02:24:14;;;;;;;36.47;26.75;;;;;;;17.18;90.18;98438.63;5035859;28;20041;-62
2021/08/07 02:26:45;;;;;;;37.83;27.15;;;;;;;17.20;90.15;98430.25;5036494;28;20052;-63
2021/08/07 02:29:11;;;;;;;42.42;28.90;;;;;;;17.23;90.23;98441.16;5035960;28;20055;-62
2021/08/07 02:31:53;;;;;;;42.63;28.17;;;;;;;17.27;90.14;98444.03;5052190;28;20496;-61
2021/08/07 02:34:20;;;;;;;39.10;28.23;;;;;;;17.25;89.86;98454.25;5035589;28;20045;-62
2021/08/07 02:36:47;;;;;;;38.22;27.20;;;;;;;17.28;89.84;98480.44;5036024;28;20057;-63
2021/08/07 02:39:20;;;;;;;40.80;28.38;;;;;;;17.30;89.39;98494.31;5052174;28;20099;-63
2021/08/07 02:41:46;;;;;;;40.70;27.95;;;;;;;17.36;89.29;98493.09;5035314;28;20423;-62
2021/08/07 02:44:14;;;;;;;35.22;28.42;;;;;;;17.39;89.35;98484.47;5035827;28;20053;-62
2021/08/07 02:46:43;;;;;;;35.30;27.05;;;;;;;17.40;88.92;98479.88;5034919;28;20467;-61
2021/08/07 02:49:12;;;;;;;37.75;28.52;;;;;;;17.39;89.16;98476.44;5035835;28;20045;-61
2021/08/07 02:51:40;;;;;;;40.20;29.20;;;;;;;17.38;89.26;98466.00;5051847;28;20045;-61
2021/08/07 02:54:09;;;;;;;37.47;28.20;;;;;;;17.34;88.98;98447.06;5052099;28;20072;-62
2021/08/07 02:56:35;;;;;;;36.28;26.85;;;;;;;17.35;88.96;98445.19;5051740;28;20144;-62
2021/08/07 02:59:01;;;;;;;32.47;25.35;;;;;;;17.33;89.09;98450.06;5051743;28;20549;-63
2021/08/07 03:01:28;;;;;;;34.83;26.00;;;;;;;17.34;89.06;98452.44;5051436;28;20055;-63
2021/08/07 03:03:56;;;;;;;36.38;26.88;;;;;;;17.29;89.03;98439.16;5051660;28;20211;-61
2021/08/07 03:06:24;;;;;;;36.13;26.40;;;;;;;17.30;89.08;98442.66;5051593;28;20053;-61
2021/08/07 03:08:52;;;;;;;32.90;25.40;;;;;;;17.27;88.91;98452.06;5034828;28;20066;-61
2021/08/07 03:11:18;;;;;;;34.33;25.55;;;;;;;17.27;88.86;98437.91;5051396;28;20049;-61
2021/08/07 03:13:46;;;;;;;34.25;25.73;;;;;;;17.29;89.12;98449.88;5051622;28;20033;-61
2021/08/07 03:16:14;;;;;;;36.65;27.67;;;;;;;17.32;89.13;98451.94;5051364;28;20055;-62
2021/08/07 03:18:44;;;;;;;33.67;26.25;;;;;;;17.32;88.88;98451.16;5035131;28;20206;-62
2021/08/07 03:21:10;;;;;;;32.47;25.42;;;;;;;17.34;88.76;98457.00;5034425;28;20098;-62
2021/08/07 03:24:08;;;;;;;33.28;24.90;;;;;;;17.34;88.87;98435.56;5062257;28;20496;-62
2021/08/07 03:26:38;;;;;;;33.45;25.13;;;;;;;17.36;88.86;98444.09;5051152;28;20053;-61
2021/08/07 03:29:15;;;;;;;31.35;23.35;;;;;;;17.33;88.74;98440.16;5034610;28;20498;-62
2021/08/07 03:31:41;;;;;;;29.77;24.00;;;;;;;17.36;88.68;98434.19;5034534;28;20045;-62
2021/08/07 03:34:07;;;;;;;33.25;24.38;;;;;;;17.35;88.87;98427.22;5051107;28;20041;-62
2021/08/07 03:36:34;;;;;;;30.48;24.08;;;;;;;17.39;88.83;98436.25;5051186;28;20045;-61
2021/08/07 03:39:04;;;;;;;32.10;24.15;;;;;;;17.45;88.64;98447.63;5050956;28;20044;-62
2021/08/07 03:41:31;;;;;;;34.55;25.63;;;;;;;17.46;88.56;98450.00;5034176;28;20048;-62
2021/08/07 03:43:58;;;;;;;31.27;24.17;;;;;;;17.48;88.20;98455.06;5050920;28;20044;-62
2021/08/07 03:46:25;;;;;;;37.70;25.35;;;;;;;17.52;88.14;98447.19;5050692;28;20052;-62
2021/08/07 03:48:52;;;;;;;33.05;23.75;;;;;;;17.54;87.77;98443.13;5050730;28;20045;-61
2021/08/07 03:51:18;;;;;;;35.15;26.70;;;;;;;17.61;87.96;98446.13;5050998;28;20041;-61
2021/08/07 03:53:45;;;;;;;35.05;24.35;;;;;;;17.57;87.73;98434.47;5050893;28;20422;-62
2021/08/07 03:56:17;;;;;;;33.20;24.65;;;;;;;17.61;87.92;98446.13;5050932;28;20048;-62
2021/08/07 03:58:42;;;;;;;31.98;25.70;;;;;;;17.61;87.94;98453.38;5050941;28;20132;-62
2021/08/07 04:01:12;;;;;;;34.05;25.73;;;;;;;17.57;87.59;98439.81;5050278;28;20102;-62
2021/08/07 04:03:38;;;;;;;32.25;25.65;;;;;;;17.59;87.97;98437.63;5050788;28;20037;-61
2021/08/07 04:06:04;;;;;;;35.83;26.33;;;;;;;17.62;87.70;98441.59;5050466;28;20413;-62
2021/08/07 04:08:34;;;;;;;33.55;26.00;;;;;;;17.59;87.79;98436.81;5050373;28;20043;-62
2021/08/07 04:11:00;;;;;;;35.83;25.83;;;;;;;17.57;87.75;98439.03;5033941;28;20049;-62
2021/08/07 04:13:31;;;;;;;34.35;26.63;;;;;;;17.51;87.71;98427.66;5050373;28;20045;-61
2021/08/07 04:16:01;;;;;;;31.83;26.00;;;;;;;17.57;87.76;98422.97;5052117;28;20422;-62
2021/08/07 04:18:27;;;;;;;36.63;26.85;;;;;;;17.56;87.93;98426.72;5033630;28;20052;-62
2021/08/07 04:20:54;;;;;;;38.55;27.42;;;;;;;17.56;88.04;98424.84;5050065;28;20072;-62
2021/08/07 04:23:22;;;;;;;35.40;26.45;;;;;;;17.56;87.90;98419.50;5050034;28;20045;-62
2021/08/07 04:25:48;;;;;;;35.88;26.77;;;;;;;17.60;88.14;98428.50;5050115;28;20048;-61
2021/08/07 04:28:15;;;;;;;35.40;26.83;;;;;;;17.63;87.72;98430.56;5050088;28;20065;-61
2021/08/07 04:30:44;;;;;;;33.13;25.35;;;;;;;17.66;87.41;98424.56;5017761;28;20517;-62
2021/08/07 04:33:10;;;;;;;34.95;25.55;;;;;;;17.68;87.14;98421.59;5049937;28;20417;-63
2021/08/07 04:35:43;;;;;;;31.42;25.58;;;;;;;17.83;86.49;98426.59;5034599;28;20033;-62
2021/08/07 04:38:15;;;;;;;33.17;25.00;;;;;;;17.90;86.50;98408.16;5049931;28;20118;-62
2021/08/07 04:40:41;;;;;;;33.17;25.25;;;;;;;18.06;86.15;98413.91;5050091;28;20088;-62
2021/08/07 04:43:14;;;;;;;30.52;25.02;;;;;;;18.17;85.25;98411.72;5049820;28;20072;-63
2021/08/07 04:45:39;;;;;;;29.98;24.75;;;;;;;18.37;84.20;98418.41;5049710;28;20037;-62
2021/08/07 04:48:07;;;;;;;29.65;23.70;;;;;;;18.49;83.52;98420.50;5049612;28;20045;-62
2021/08/07 04:50:41;;;;;;;34.53;24.25;;;;;;;18.67;83.49;98421.31;5050076;28;20052;-62
2021/08/07 04:53:07;;;;;;;29.33;24.70;;;;;;;18.71;82.67;98431.13;5049734;28;20049;-61
2021/08/07 04:55:36;;;;;;;28.30;24.30;;;;;;;18.71;82.72;98422.28;5050075;28;20048;-62
2021/08/07 04:58:04;;;;;;;30.48;25.20;;;;;;;18.75;82.57;98434.78;5049687;28;20455;-62
2021/08/07 05:00:32;;;;;;;29.50;24.88;;;;;;;18.92;82.26;98438.59;5049968;28;20482;-62
2021/08/07 05:03:01;;;;;;;30.75;24.85;;;;;;;19.21;80.85;98429.91;5049595;28;20155;-62
2021/08/07 05:05:31;;;;;;;27.17;22.98;;;;;;;19.53;79.64;98433.97;5049930;28;20410;-62
2021/08/07 05:07:58;;;;;;;25.98;22.33;;;;;;;19.79;78.53;98454.63;5050949;28;20346;-62
2021/08/07 05:10:25;;;;;;;25.33;21.67;;;;;;;19.88;78.15;98450.84;5051656;28;20045;-62
2021/08/07 05:12:50;;;;;;;24.65;21.98;;;;;;;19.77;78.11;98459.56;5053590;28;20049;-62
2021/08/07 05:15:16;;;;;;;30.90;22.23;;;;;;;19.73;78.18;98452.13;5020709;28;20557;-62
2021/08/07 05:17:43;;;;;;;24.92;22.25;;;;;;;19.90;78.15;98445.13;5053543;28;20080;-62
2021/08/07 05:20:10;;;;;;;28.30;22.58;;;;;;;19.93;77.65;98442.56;5053209;28;20061;-63
2021/08/07 05:22:36;;;;;;;26.90;23.02;;;;;;;19.99;77.50;98455.84;5053244;28;20148;-62
2021/08/07 05:25:04;;;;;;;25.08;22.38;;;;;;;20.07;77.07;98471.97;5053259;28;20083;-63
2021/08/07 05:27:31;;;;;;;29.05;21.88;;;;;;;20.14;76.86;98453.41;5053291;28;20067;-62
2021/08/07 05:30:01;;;;;;;24.80;20.63;;;;;;;20.34;76.66;98453.81;5053456;28;20036;-62
2021/08/07 05:32:28;;;;;;;25.08;20.80;;;;;;;20.50;76.10;98448.63;5053086;28;20061;-63
2021/08/07 05:34:54;;;;;;;27.48;21.50;;;;;;;20.49;75.82;98455.16;5053297;28;20198;-63
2021/08/07 05:37:22;;;;;;;24.17;20.00;;;;;;;20.58;75.47;98432.47;5053171;28;20536;-63
2021/08/07 05:39:48;;;;;;;23.98;20.55;;;;;;;20.60;75.63;98441.00;5054784;28;20061;-62
2021/08/07 05:42:14;;;;;;;24.58;20.05;;;;;;;20.67;74.97;98437.00;5053039;28;20053;-62
2021/08/07 05:44:40;;;;;;;22.77;19.80;;;;;;;20.69;74.69;98430.19;5053064;28;20105;-63
2021/08/07 05:47:06;;;;;;;25.10;19.48;;;;;;;20.70;74.62;98445.22;5052368;28;20041;-63
2021/08/07 05:49:32;;;;;;;24.75;18.95;;;;;;;20.76;74.30;98440.44;5052664;28;20045;-64
2021/08/07 05:51:58;;;;;;;26.67;18.90;;;;;;;20.69;74.33;98438.25;5052877;28;20049;-63
2021/08/07 05:54:24;;;;;;;28.77;19.23;;;;;;;20.72;74.56;98437.59;5052985;28;20589;-63
2021/08/07 05:56:50;;;;;;;24.67;19.15;;;;;;;20.78;74.95;98422.03;5036412;28;20520;-62
2021/08/07 05:59:16;;;;;;;25.83;19.85;;;;;;;20.87;74.16;98418.16;5052847;28;20065;-63
2021/08/07 06:01:42;;;;;;;22.35;18.48;;;;;;;20.78;73.50;98406.66;5053839;28;20059;-63
2021/08/07 06:04:08;;;;;;;22.70;17.90;;;;;;;20.84;73.77;98399.97;5054219;28;20064;-63
2021/08/07 06:06:34;;;;;;;22.75;18.38;;;;;;;21.13;72.86;98402.91;5052712;28;20083;-63
2021/08/07 06:09:00;;;;;;;22.52;18.98;;;;;;;21.26;72.83;98401.81;5052830;28;20149;-63
2021/08/07 06:11:26;;;;;;;20.90;18.63;;;;;;;21.31;72.33;98399.72;5052498;28;20041;-64
2021/08/07 06:13:52;;;;;;;22.10;18.83;;;;;;;21.39;72.39;98384.63;5052340;28;20510;-62
2021/08/07 06:16:17;;;;;;;21.90;17.58;;;;;;;21.36;72.23;98369.09;5052401;28;20052;-63
2021/08/07 06:18:46;;;;;;;19.58;17.60;;;;;;;21.18;72.13;98367.66;5035624;28;20383;-62
2021/08/07 06:21:11;;;;;;;19.58;17.45;;;;;;;21.19;72.57;98366.56;5051578;28;20097;-65
2021/08/07 06:23:37;;;;;;;21.55;17.92;;;;;;;21.39;71.95;98381.13;5052252;28;20453;-63
2021/08/07 06:26:03;;;;;;;22.30;17.20;;;;;;;21.60;71.35;98387.25;5035665;28;20531;-62
2021/08/07 06:28:31;;;;;;;21.13;16.63;;;;;;;21.64;71.36;98390.06;5052169;28;20140;-62
2021/08/07 06:30:57;;;;;;;18.92;16.10;;;;;;;21.50;71.47;98395.75;5052145;28;20048;-64
2021/08/07 06:33:26;;;;;;;22.33;17.33;;;;;;;21.37;72.34;98394.94;5052038;28;20140;-63
2021/08/07 06:35:52;;;;;;;22.60;16.33;;;;;;;21.40;72.29;98396.19;5052007;28;20046;-63
2021/08/07 06:38:18;;;;;;;19.70;16.58;;;;;;;21.43;71.89;98404.38;5051977;28;20111;-63
2021/08/07 06:40:44;;;;;;;18.38;16.25;;;;;;;21.45;72.17;98404.06;5035399;28;20036;-63
2021/08/07 06:43:15;;;;;;;23.85;16.80;;;;;;;21.47;72.14;98412.59;5051995;28;20064;-63
2021/08/07 06:45:56;;;;;;;19.05;16.83;;;;;;;21.55;72.13;98407.09;5037587;28;20060;-63
2021/08/07 06:48:22;;;;;;;21.88;17.17;;;;;;;21.66;72.02;98420.97;5051947;28;20563;-64
2021/08/07 06:50:48;;;;;;;19.85;17.30;;;;;;;21.66;71.71;98429.06;5052150;28;20041;-63
2021/08/07 06:53:21;;;;;;;19.02;17.10;;;;;;;21.68;71.46;98443.00;5051691;28;20044;-64
2021/08/07 06:55:48;;;;;;;21.05;16.40;;;;;;;21.82;71.64;98456.16;5035386;28;20414;-62
2021/08/07 06:58:13;;;;;;;19.65;16.67;;;;;;;21.99;70.83;98466.75;5052935;28;20041;-62
2021/08/07 07:00:41;;;;;;;22.58;17.50;;;;;;;22.00;70.49;98456.75;5053399;28;20044;-65
2021/08/07 07:03:08;;;;;;;18.70;16.70;;;;;;;21.87;71.15;98439.75;5052739;28;20467;-64
2021/08/07 07:05:33;;;;;;;22.98;17.67;;;;;;;21.72;72.23;98430.41;5051836;28;20076;-63
2021/08/07 07:08:00;;;;;;;19.88;17.08;;;;;;;21.59;72.75;98428.81;5051774;28;20379;-63
2021/08/07 07:10:28;;;;;;;21.60;17.77;;;;;;;21.54;73.35;98431.72;5035327;28;20047;-62
2021/08/07 07:12:54;;;;;;;19.40;17.23;;;;;;;21.54;73.08;98437.13;5051437;28;20131;-64
2021/08/07 07:15:20;;;;;;;25.73;17.70;;;;;;;21.55;73.61;98438.69;5053169;28;20505;-64
2021/08/07 07:17:46;;;;;;;22.13;18.08;;;;;;;21.66;73.48;98430.97;5052876;28;20229;-62
2021/08/07 07:20:13;;;;;;;19.98;17.48;;;;;;;21.74;73.22;98438.19;5052463;28;20060;-62
2021/08/07 07:22:40;;;;;;;23.27;18.10;;;;;;;21.83;73.22;98446.97;5051188;28;20435;-63
2021/08/07 07:25:11;;;;;;;25.20;18.15;;;;;;;21.90;73.14;98441.00;5051360;28;20047;-62
2021/08/07 07:27:37;;;;;;;21.20;17.77;;;;;;;21.89;73.17;98444.84;5051120;28;20052;-63
2021/08/07 07:30:04;;;;;;;24.20;19.15;;;;;;;21.84;73.17;98443.13;5051309;28;20052;-62
2021/08/07 07:32:30;;;;;;;22.08;17.40;;;;;;;21.82;72.77;98439.19;5052147;28;20090;-63
2021/08/07 07:34:56;;;;;;;19.75;17.25;;;;;;;21.90;72.55;98449.88;5051043;28;20053;-62
2021/08/07 07:37:22;;;;;;;21.45;17.98;;;;;;;21.97;72.89;98449.31;5050836;28;20528;-63
2021/08/07 07:39:48;;;;;;;25.98;18.05;;;;;;;21.97;72.59;98447.44;5051006;28;20049;-63
2021/08/07 07:42:15;;;;;;;23.58;17.80;;;;;;;21.97;70.91;98457.41;5050693;28;20131;-62
2021/08/07 07:44:41;;;;;;;19.08;16.83;;;;;;;21.97;70.51;98471.72;5034328;28;20123;-63
2021/08/07 07:47:06;;;;;;;23.90;17.23;;;;;;;21.96;70.12;98474.75;5050725;28;20557;-64
2021/08/07 07:49:32;;;;;;;21.73;16.50;;;;;;;21.96;69.70;98477.44;5050759;28;20098;-63
2021/08/07 07:51:59;;;;;;;25.05;16.85;;;;;;;21.98;70.10;98491.38;5050769;28;20076;-63
2021/08/07 07:54:25;;;;;;;21.67;16.08;;;;;;;21.94;70.01;98488.59;5052034;28;20075;-62
2021/08/07 07:56:51;;;;;;;23.58;16.25;;;;;;;22.00;69.48;98494.53;5051697;28;20041;-63
2021/08/07 07:59:17;;;;;;;22.23;15.90;;;;;;;22.05;69.45;98497.00;5050834;28;20094;-64
2021/08/07 08:01:43;;;;;;;20.08;16.40;;;;;;;22.06;69.24;98498.59;5050396;28;20427;-63
2021/08/07 08:04:09;;;;;;;25.30;15.45;;;;;;;22.10;68.74;98504.91;5050440;28;20047;-63
2021/08/07 08:06:34;;;;;;;22.70;15.18;;;;;;;22.20;68.58;98509.09;5050447;28;20048;-62
2021/08/07 08:09:00;;;;;;;27.77;15.32;;;;;;;22.34;68.23;98514.19;5050277;28;20490;-63
2021/08/07 08:11:26;;;;;;;24.30;15.32;;;;;;;22.50;67.93;98519.69;5051882;28;20040;-63
2021/08/07 08:13:52;;;;;;;18.52;15.13;;;;;;;22.59;67.25;98517.66;5050214;28;20049;-63
2021/08/07 08:16:18;;;;;;;25.70;15.80;;;;;;;22.76;66.99;98525.53;5050540;28;20048;-63
2021/08/07 08:18:44;;;;;;;23.67;16.27;;;;;;;22.99;66.47;98530.50;5050068;28;20040;-64
2021/08/07 08:21:09;;;;;;;21.15;15.00;;;;;;;23.25;65.33;98527.41;5051190;28;20133;-62
2021/08/07 08:23:35;;;;;;;21.13;15.20;;;;;;;23.46;64.97;98524.53;5051398;28;20047;-62
2021/08/07 08:26:02;;;;;;;19.58;14.50;;;;;;;23.69;64.34;98522.06;5051413;28;20124;-64
2021/08/07 08:28:27;;;;;;;18.05;14.38;;;;;;;23.82;63.83;98518.19;5049910;28;20045;-63
2021/08/07 08:30:54;;;;;;;22.15;15.70;;;;;;;24.06;62.70;98525.41;5051222;28;20043;-63
2021/08/07 08:33:20;;;;;;;20.35;14.85;;;;;;;24.25;61.86;98528.19;5049835;28;20502;-62
2021/08/07 08:35:47;;;;;;;19.23;14.45;;;;;;;24.32;61.85;98511.34;5051260;28;20052;-63
2021/08/07 08:38:14;;;;;;;18.23;13.93;;;;;;;24.30;62.35;98497.38;5049972;28;20063;-63
2021/08/07 08:40:41;;;;;;;20.83;14.45;;;;;;;24.36;61.43;98493.28;5050214;28;20077;-62
2021/08/07 08:43:07;;;;;;;21.27;13.85;;;;;;;24.51;61.18;98475.47;5049824;28;20052;-62
2021/08/07 08:45:33;;;;;;;25.08;14.50;;;;;;;24.57;61.22;98468.63;5049657;28;20583;-62
2021/08/07 08:47:59;;;;;;;18.23;13.43;;;;;;;24.51;61.56;98458.44;5049861;28;20069;-62
2021/08/07 08:50:26;;;;;;;16.98;12.70;;;;;;;24.41;61.41;98441.53;5049999;28;20091;-63
2021/08/07 08:52:56;;;;;;;17.90;12.63;;;;;;;24.34;61.03;98435.16;5049622;28;20048;-63
2021/08/07 08:55:22;;;;;;;23.88;14.13;;;;;;;24.46;60.87;98438.56;5049993;28;20037;-63
2021/08/07 08:57:48;;;;;;;19.27;13.20;;;;;;;24.65;60.32;98435.13;5049740;28;20091;-65
2021/08/07 09:00:15;;;;;;;15.75;12.82;;;;;;;24.88;59.46;98450.69;5049872;28;20052;-63
2021/08/07 09:02:42;;;;;;;18.05;12.38;;;;;;;24.92;60.15;98451.59;5049476;28;20067;-63
2021/08/07 09:05:10;;;;;;;22.80;12.85;;;;;;;24.96;59.27;98440.81;5033139;28;20098;-62
2021/08/07 09:07:37;;;;;;;18.50;12.15;;;;;;;24.86;59.90;98432.09;5049504;28;20052;-62
2021/08/07 09:10:04;;;;;;;18.60;12.80;;;;;;;24.73;60.34;98419.03;5049571;28;20049;-62
2021/08/07 09:12:52;;;;;;;;;;;;;;;24.63;59.87;98428.50;5049752;28;20448;-63
2021/08/07 09:15:36;;;;;;;21.03;12.90;;;;;;;24.70;60.58;98448.41;5033278;28;19927;-62
2021/08/07 09:18:25;;;;;;;19.13;11.75;;;;;;;24.86;60.00;98461.13;5049264;28;20052;-62
2021/08/07 09:21:09;;;;;;;16.60;11.93;;;;;;;25.11;59.01;98473.25;5049390;28;20069;-63
2021/08/07 09:23:36;;;;;;;16.65;11.18;;;;;;;25.28;57.72;98482.16;5049429;28;20041;-63
2021/08/07 09:26:22;;;;;;;17.15;11.35;;;;;;;25.46;57.59;98480.56;5049340;28;20399;-62
2021/08/07 09:28:54;;;;;;;13.27;10.40;;;;;;;25.57;56.75;98486.22;5049368;28;20045;-63
2021/08/07 09:31:25;;;;;;;18.17;11.05;;;;;;;25.62;56.74;98483.22;5049459;28;20103;-63
2021/08/07 09:34:18;;;;;;;20.10;10.52;;;;;;;25.63;56.11;98481.28;5016593;28;20048;-62
2021/08/07 09:36:56;;;;;;;16.65;9.98;;;;;;;25.65;55.89;98489.84;5049279;28;20056;-63
2021/08/07 09:39:35;;;;;;;15.68;9.52;;;;;;;25.77;54.70;98492.41;5049185;28;20486;-62
2021/08/07 09:42:02;;;;;;;13.43;9.05;;;;;;;25.85;54.32;98498.75;5049106;28;20403;-62
2021/08/07 09:44:35;;;;;;;13.52;8.68;;;;;;;25.89;54.48;98505.84;5049448;28;20059;-63
2021/08/07 09:47:15;;;;;;;13.20;8.93;;;;;;;25.95;54.27;98511.75;5049168;28;20059;-63
2021/08/07 09:49:45;;;;;;;18.50;9.63;;;;;;;25.92;54.41;98498.91;5050813;28;20044;-63
2021/08/07 09:52:12;;;;;;;14.85;8.80;;;;;;;25.89;54.12;98505.84;5049190;28;20045;-63
2021/08/07 09:54:44;;;;;;;15.18;9.13;;;;;;;25.87;53.58;98493.75;5049356;28;20045;-63
2021/08/07 09:57:29;;;;;;;16.75;9.20;;;;;;;25.85;53.98;98496.81;5050478;28;20052;-64
2021/08/07 09:59:59;;;;;;;13.55;8.65;;;;;;;25.89;54.01;98486.06;5053034;28;20075;-62
2021/08/07 10:02:35;;;;;;;12.75;9.10;;;;;;;25.93;54.24;98493.09;5035896;28;20128;-63
2021/08/07 10:05:08;;;;;;;15.25;9.05;;;;;;;25.96;54.23;98486.16;5052750;28;20051;-64
2021/08/07 10:07:35;;;;;;;14.02;9.20;;;;;;;25.92;54.14;98491.53;5036715;28;20441;-64
2021/08/07 10:10:21;;;;;;;13.40;9.40;;;;;;;25.86;53.89;98475.91;5052645;28;20494;-63
2021/08/07 10:12:51;;;;;;;14.50;9.63;;;;;;;25.92;54.07;98488.81;5036482;28;20104;-63
2021/08/07 10:15:26;;;;;;;17.50;9.32;;;;;;;25.93;54.62;98484.19;5052873;28;20107;-62
2021/08/07 10:17:52;;;;;;;15.70;8.98;;;;;;;25.89;54.44;98472.47;5036010;28;20077;-64
2021/08/07 10:20:18;;;;;;;12.50;9.00;;;;;;;25.79;54.49;98482.72;5052118;28;20095;-63
2021/08/07 10:22:44;;;;;;;13.60;8.77;;;;;;;25.79;54.61;98484.66;5035530;28;20140;-62
2021/08/07 10:25:11;;;;;;;11.55;9.05;;;;;;;25.89;54.62;98489.56;5052267;28;20037;-63
2021/08/07 10:27:38;;;;;;;13.52;9.07;;;;;;;25.94;54.13;98496.59;5052132;28;20057;-62
2021/08/07 10:30:06;;;;;;;16.33;9.38;;;;;;;25.98;54.14;98500.19;5052072;28;20123;-62
2021/08/07 10:32:39;;;;;;;12.60;9.00;;;;;;;25.98;53.17;98509.09;5052221;28;20057;-63
2021/08/07 10:35:08;;;;;;;18.08;8.65;;;;;;;26.01;53.29;98505.66;5035865;28;20049;-64
2021/08/07 10:37:34;;;;;;;17.27;9.02;;;;;;;26.03;53.41;98511.53;5051966;28;20052;-62
2021/08/07 10:39:59;;;;;;;13.35;8.27;;;;;;;26.10;52.94;98513.56;5035774;28;20041;-63
2021/08/07 10:42:27;;;;;;;12.38;8.38;;;;;;;26.08;53.43;98531.38;5052032;28;20525;-63
2021/08/07 10:44:53;;;;;;;11.95;8.40;;;;;;;26.14;52.69;98532.63;5035506;28;20049;-62
2021/08/07 10:47:40;;;;;;;11.80;8.20;;;;;;;26.32;52.10;98535.66;5051921;28;20045;-62
2021/08/07 10:50:24;;;;;;;10.68;7.85;;;;;;;26.50;51.66;98528.59;5035843;28;20067;-63
2021/08/07 10:52:53;;;;;;;10.98;8.35;;;;;;;26.60;51.21;98530.72;5051704;28;20124;-62
2021/08/07 10:55:49;;;;;;;13.48;7.93;;;;;;;26.64;50.43;98536.19;5053474;28;20037;-63
2021/08/07 10:58:37;;;;;;;13.68;8.43;;;;;;;26.59;51.09;98522.91;5052964;28;20049;-63
2021/08/07 11:01:21;;;;;;;14.18;8.27;;;;;;;26.58;51.14;98515.91;5052957;28;20045;-63
2021/08/07 11:04:02;;;;;;;12.93;7.78;;;;;;;26.59;51.04;98510.13;5052876;28;20037;-63
2021/08/07 11:06:38;;;;;;;11.98;8.13;;;;;;;26.61;51.26;98509.75;5052929;28;20052;-64
2021/08/07 11:09:22;;;;;;;14.50;8.07;;;;;;;26.82;50.85;98515.50;5052464;28;20094;-63
2021/08/07 11:12:10;;;;;;;11.27;8.23;;;;;;;26.95;50.24;98514.13;5052686;28;20494;-63
2021/08/07 11:14:42;;;;;;;12.00;8.15;;;;;;;26.94;50.03;98520.75;5052914;28;20041;-63
2021/08/07 11:17:10;;;;;;;8.25;7.45;;;;;;;27.00;50.21;98523.91;5052702;28;20052;-63
2021/08/07 11:19:55;;;;;;;13.80;7.75;;;;;;;27.02;50.09;98532.47;5052357;28;20088;-63
2021/08/07 11:22:51;;;;;;;15.38;8.10;;;;;;;26.94;49.71;98539.78;5051054;28;20057;-63
2021/08/07 11:25:20;;;;;;;18.92;8.60;;;;;;;26.83;50.71;98538.06;5051336;28;20053;-62
2021/08/07 11:30:20;;;;;;;15.45;8.52;;;;;;;26.70;51.50;98540.16;5052539;28;20570;-62
2021/08/07 11:32:55;;;;;;;15.07;8.18;;;;;;;26.81;50.66;98524.03;5052070;28;20048;-62